createdAt,value
2024-03-12T00:00:53.524Z,100131.96
2024-03-12T00:03:42.747Z,100137.58
2024-03-12T00:06:13.856Z,100132.92
2024-03-12T00:08:43.075Z,100135.08
2024-03-12T00:11:14.202Z,100136.31
2024-03-12T00:13:45.089Z,100139.33
2024-03-12T00:16:15.179Z,100137.36
2024-03-12T00:18:46.055Z,100140.68
2024-03-12T00:21:16.875Z,100140.88
2024-03-12T00:23:47.969Z,100144.59
2024-03-12T00:26:17.330Z,100145.69
2024-03-12T00:28:48.329Z,100148.73
2024-03-12T00:31:17.675Z,100148.08
2024-03-12T00:33:48.996Z,100148.98
2024-03-12T00:36:19.921Z,100148.77
2024-03-12T00:38:51.153Z,100150.19
2024-03-12T00:41:22.044Z,100150.29
2024-03-12T00:43:52.841Z,100152.97
2024-03-12T00:46:23.878Z,100155.43
2024-03-12T00:48:53.265Z,100151.78
2024-03-12T00:51:24.600Z,100147.60
2024-03-12T00:53:55.508Z,100145.90
2024-03-12T00:56:26.308Z,100144.63
2024-03-12T00:58:57.378Z,100139.94
2024-03-12T01:01:26.764Z,100138.77
2024-03-12T01:03:57.701Z,100139.09
2024-03-12T01:06:28.680Z,100137.09
2024-03-12T01:08:59.724Z,100138.11
2024-03-12T01:11:28.943Z,100136.25
2024-03-12T01:14:01.120Z,100142.11
2024-03-12T01:16:33.000Z,100142.61
2024-03-12T01:19:04.132Z,100141.81
2024-03-12T01:21:35.584Z,100143.84
2024-03-12T01:24:07.356Z,100142.84
2024-03-12T01:26:38.358Z,100143.02
2024-03-12T01:29:09.598Z,100147.02
2024-03-12T01:31:40.563Z,100147.54
2024-03-12T01:34:11.705Z,100149.25
2024-03-12T01:36:43.247Z,100154.18
2024-03-12T01:39:14.720Z,100157.83
2024-03-12T01:41:45.982Z,100155.56
2024-03-12T01:44:16.979Z,100154.16
2024-03-12T01:46:48.672Z,100151.22
2024-03-12T01:49:20.301Z,100151.58
2024-03-12T01:51:51.787Z,100152.73
2024-03-12T01:54:22.909Z,100154.81
2024-03-12T01:56:52.270Z,100153.39
2024-03-12T01:59:23.262Z,100153.05
2024-03-12T02:02:00.878Z,100152.96
2024-03-12T02:04:32.054Z,100156.80
2024-03-12T02:07:01.522Z,100159.10
2024-03-12T02:09:32.806Z,100159.52
2024-03-12T02:12:03.943Z,100162.71
2024-03-12T02:14:33.186Z,100167.52
2024-03-12T02:17:04.596Z,100169.98
2024-03-12T02:19:35.770Z,100166.64
2024-03-12T02:22:06.808Z,100168.86
2024-03-12T02:24:36.099Z,100175.25
2024-03-12T02:27:07.294Z,100176.73
2024-03-12T02:29:38.549Z,100176.56
2024-03-12T02:32:09.575Z,100173.11
2024-03-12T02:34:38.811Z,100178.73
2024-03-12T02:37:09.875Z,100179.04
2024-03-12T02:39:41.173Z,100176.91
2024-03-12T02:42:12.039Z,100177.40
2024-03-12T02:44:42.959Z,100176.48
2024-03-12T02:47:13.743Z,100177.19
2024-03-12T02:49:44.673Z,100178.41
2024-03-12T02:52:15.490Z,100178.41
2024-03-12T02:54:46.675Z,100177.88
2024-03-12T02:57:15.903Z,100180.78
2024-03-12T02:59:46.814Z,100180.60
2024-03-12T03:02:17.883Z,100181.29
2024-03-12T03:04:47.225Z,100185.69
2024-03-12T03:07:18.381Z,100184.52
2024-03-12T03:09:49.439Z,100185.47
2024-03-12T03:12:18.693Z,100187.29
2024-03-12T03:14:50.823Z,100185.86
2024-03-12T03:17:42.936Z,100188.02
2024-03-12T03:20:14.433Z,100189.11
2024-03-12T03:22:45.773Z,100188.99
2024-03-12T03:25:17.004Z,100188.55
2024-03-12T03:27:48.039Z,100191.06
2024-03-12T03:30:19.970Z,100190.41
2024-03-12T03:32:51.693Z,100191.38
2024-03-12T03:35:22.726Z,100192.02
2024-03-12T03:37:53.989Z,100188.85
2024-03-12T03:40:25.824Z,100190.49
2024-03-12T03:42:56.883Z,100186.64
2024-03-12T03:45:26.970Z,100183.43
2024-03-12T03:47:58.123Z,100187.20
2024-03-12T03:50:27.522Z,100185.93
2024-03-12T03:52:58.401Z,100184.78
2024-03-12T03:55:36.290Z,100183.65
2024-03-12T03:58:07.315Z,100186.80
2024-03-12T04:00:37.775Z,100181.31
2024-03-12T04:03:09.149Z,100179.87
2024-03-12T04:05:40.137Z,100180.51
2024-03-12T04:08:10.964Z,100180.17
2024-03-12T04:10:41.814Z,100178.95
2024-03-12T04:13:12.757Z,100176.31
2024-03-12T04:15:43.961Z,100174.70
2024-03-12T04:18:13.232Z,100174.98
2024-03-12T04:20:44.350Z,100176.91
2024-03-12T04:23:13.699Z,100177.46
2024-03-12T04:25:44.740Z,100179.27
2024-03-12T04:28:14.021Z,100184.95
2024-03-12T04:30:45.415Z,100181.48
2024-03-12T04:33:16.393Z,100189.36
2024-03-12T04:35:47.617Z,100191.39
2024-03-12T04:38:18.575Z,100193.14
2024-03-12T04:40:49.510Z,100186.16
2024-03-12T04:43:20.875Z,100188.20
2024-03-12T04:45:52.070Z,100193.44
2024-03-12T04:48:23.382Z,100200.73
2024-03-12T04:50:54.497Z,100202.81
2024-03-12T04:53:23.909Z,100203.91
2024-03-12T04:55:54.778Z,100207.85
2024-03-12T04:58:25.605Z,100206.73
2024-03-12T05:00:58.164Z,100206.56
2024-03-12T05:03:29.053Z,100207.97
2024-03-12T05:06:00.272Z,100209.96
2024-03-12T05:08:31.106Z,100208.08
2024-03-12T05:11:02.723Z,100204.25
2024-03-12T05:13:33.933Z,100208.01
2024-03-12T05:16:07.240Z,100207.78
2024-03-12T05:18:38.105Z,100213.20
2024-03-12T05:21:07.731Z,100216.40
2024-03-12T05:23:38.664Z,100216.25
2024-03-12T05:26:09.694Z,100218.48
2024-03-12T05:28:41.104Z,100223.51
2024-03-12T05:31:18.930Z,100228.20
2024-03-12T05:33:50.550Z,100228.69
2024-03-12T05:36:21.541Z,100235.28
2024-03-12T05:38:52.481Z,100241.08
2024-03-12T05:42:03.670Z,100242.30
2024-03-12T05:44:53.728Z,100249.55
2024-03-12T05:47:27.481Z,100251.73
2024-03-12T05:50:01.048Z,100256.52
2024-03-12T05:52:43.796Z,100253.70
2024-03-12T05:55:13.089Z,100253.54
2024-03-12T05:57:46.551Z,100256.90
2024-03-12T06:00:19.857Z,100255.78
2024-03-12T06:02:51.078Z,100262.67
2024-03-12T06:05:22.115Z,100268.91
2024-03-12T06:07:53.158Z,100270.05
2024-03-12T06:10:22.517Z,100270.63
2024-03-12T06:12:53.538Z,100272.69
2024-03-12T06:15:24.454Z,100278.91
2024-03-12T06:17:55.481Z,100281.47
2024-03-12T06:20:24.891Z,100286.38
2024-03-12T06:22:55.934Z,100284.38
2024-03-12T06:25:25.303Z,100288.06
2024-03-12T06:27:56.734Z,100290.95
2024-03-12T06:30:27.816Z,100296.80
2024-03-12T06:32:57.097Z,100302.92
2024-03-12T06:35:28.042Z,100304.08
2024-03-12T06:37:59.620Z,100304.26
2024-03-12T06:40:30.649Z,100307.14
2024-03-12T06:43:01.559Z,100308.61
2024-03-12T06:45:31.373Z,100304.33
2024-03-12T06:48:02.347Z,100310.04
2024-03-12T06:50:33.162Z,100309.57
2024-03-12T06:53:04.404Z,100309.29
2024-03-12T06:55:35.377Z,100306.89
2024-03-12T06:58:09.048Z,100317.16
2024-03-12T07:00:40.131Z,100320.35
2024-03-12T07:03:09.453Z,100322.04
2024-03-12T07:05:40.979Z,100322.55
2024-03-12T07:08:10.210Z,100324.40
2024-03-12T07:10:41.237Z,100321.39
2024-03-12T07:13:10.780Z,100323.23
2024-03-12T07:15:43.075Z,100326.79
2024-03-12T07:18:14.175Z,100325.99
2024-03-12T07:20:46.693Z,100325.40
2024-03-12T07:23:17.619Z,100330.27
2024-03-12T07:25:48.698Z,100330.51
2024-03-12T07:28:23.230Z,100330.58
2024-03-12T07:30:55.979Z,100327.29
2024-03-12T07:33:26.993Z,100327.71
2024-03-12T07:35:56.208Z,100326.16
2024-03-12T07:38:27.054Z,100325.32
2024-03-12T07:40:57.982Z,100327.29
2024-03-12T07:43:27.350Z,100325.98
2024-03-12T07:45:58.422Z,100325.55
2024-03-12T07:48:29.563Z,100325.07
2024-03-12T07:51:03.121Z,100325.53
2024-03-12T07:53:34.555Z,100326.70
2024-03-12T07:56:03.975Z,100326.78
2024-03-12T07:58:35.020Z,100328.63
2024-03-12T08:01:04.498Z,100327.95
2024-03-12T08:03:35.706Z,100328.54
2024-03-12T08:06:08.384Z,100331.59
2024-03-12T08:08:39.369Z,100331.23
2024-03-12T08:11:10.695Z,100328.18
2024-03-12T08:13:42.073Z,100332.10
2024-03-12T08:16:13.050Z,100334.65
2024-03-12T08:18:42.639Z,100331.80
2024-03-12T08:21:13.612Z,100335.05
2024-03-12T08:23:44.661Z,100339.74
2024-03-12T08:26:15.691Z,100336.34
2024-03-12T08:28:45.039Z,100340.20
2024-03-12T08:31:23.701Z,100339.01
2024-03-12T08:34:02.041Z,100347.09
2024-03-12T08:36:31.342Z,100345.69
2024-03-12T08:39:02.497Z,100346.44
2024-03-12T08:41:31.833Z,100348.07
2024-03-12T08:44:02.783Z,100347.29
2024-03-12T08:46:32.108Z,100351.23
2024-03-12T08:49:03.720Z,100351.39
2024-03-12T08:51:35.107Z,100350.90
2024-03-12T08:54:06.524Z,100348.60
2024-03-12T08:56:37.601Z,100353.38
2024-03-12T08:59:08.785Z,100351.88
2024-03-12T09:01:39.800Z,100357.06
2024-03-12T09:04:11.824Z,100355.91
2024-03-12T09:06:43.001Z,100358.51
2024-03-12T09:09:13.919Z,100359.27
2024-03-12T09:11:44.776Z,100359.15
2024-03-12T09:14:14.146Z,100356.40
2024-03-12T09:16:44.969Z,100358.14
2024-03-12T09:19:15.993Z,100357.75
2024-03-12T09:21:47.082Z,100359.42
2024-03-12T09:24:16.639Z,100354.73
2024-03-12T09:26:49.045Z,100355.73
2024-03-12T09:29:20.359Z,100358.22
2024-03-12T09:31:51.122Z,100356.27
2024-03-12T09:34:22.064Z,100356.62
2024-03-12T09:36:53.179Z,100357.41
2024-03-12T09:39:25.078Z,100356.21
2024-03-12T09:41:56.492Z,100353.98
2024-03-12T09:44:27.757Z,100362.17
2024-03-12T09:46:58.807Z,100362.43
2024-03-12T09:49:30.880Z,100364.51
2024-03-12T09:52:02.155Z,100366.65
2024-03-12T09:54:33.487Z,100367.13
2024-03-12T09:57:06.813Z,100367.55
2024-03-12T09:59:37.916Z,100367.17
2024-03-12T10:02:09.377Z,100369.23
2024-03-12T10:04:40.521Z,100371.21
2024-03-12T10:07:12.505Z,100371.80
2024-03-12T10:09:43.542Z,100374.84
2024-03-12T10:12:12.891Z,100373.77
2024-03-12T10:14:46.103Z,100378.52
2024-03-12T10:17:17.457Z,100380.03
2024-03-12T10:19:48.516Z,100382.52
2024-03-12T10:22:21.513Z,100383.83
2024-03-12T10:24:52.472Z,100384.44
2024-03-12T10:27:21.709Z,100390.08
2024-03-12T10:29:52.563Z,100392.41
2024-03-12T10:32:25.539Z,100391.55
2024-03-12T10:34:56.632Z,100388.36
2024-03-12T10:37:33.009Z,100389.36
2024-03-12T10:40:21.163Z,100384.47
2024-03-12T10:42:56.558Z,100378.84
2024-03-12T10:45:27.610Z,100380.13
2024-03-12T10:48:00.559Z,100379.73
2024-03-12T10:50:34.241Z,100377.65
2024-03-12T10:53:05.979Z,100377.60
2024-03-12T10:55:43.175Z,100379.42
2024-03-12T10:58:16.020Z,100383.27
2024-03-12T11:00:47.165Z,100380.75
2024-03-12T11:03:18.657Z,100378.52
2024-03-12T11:05:50.819Z,100379.16
2024-03-12T11:08:21.740Z,100380.13
2024-03-12T11:10:51.372Z,100380.48
2024-03-12T11:13:22.582Z,100379.09
2024-03-12T11:15:56.275Z,100379.23
2024-03-12T11:18:37.330Z,100380.99
2024-03-12T11:21:11.532Z,100382.84
2024-03-12T11:23:42.716Z,100381.46
2024-03-12T11:26:16.405Z,100378.45
2024-03-12T11:28:51.367Z,100382.52
2024-03-12T11:31:22.473Z,100377.56
2024-03-12T11:33:54.124Z,100381.85
2024-03-12T11:36:33.077Z,100380.95
2024-03-12T11:39:09.041Z,100378.79
2024-03-12T11:42:14.761Z,100380.28
2024-03-12T11:44:53.931Z,100381.07
2024-03-12T11:47:35.229Z,100380.52
2024-03-12T11:50:34.782Z,100381.81
2024-03-12T11:53:22.451Z,100381.59
2024-03-12T11:56:09.738Z,100377.73
2024-03-12T11:58:43.004Z,100380.52
2024-03-12T12:01:18.743Z,100379.75
2024-03-12T12:03:56.425Z,100382.91
2024-03-12T12:06:27.570Z,100382.61
2024-03-12T12:09:01.567Z,100386.58
2024-03-12T12:11:33.384Z,100382.46
2024-03-12T12:14:05.592Z,100382.05
2024-03-12T12:16:36.891Z,100381.58
2024-03-12T12:19:09.593Z,100386.05
2024-03-12T12:21:41.383Z,100381.42
2024-03-12T12:24:13.100Z,100379.26
2024-03-12T12:26:46.181Z,100378.08
2024-03-12T12:29:17.737Z,100380.02
2024-03-12T12:31:49.161Z,100379.91
2024-03-12T12:34:20.962Z,100383.95
2024-03-12T12:36:53.066Z,100385.92
2024-03-12T12:39:32.897Z,100384.70
2024-03-12T12:42:12.301Z,100390.22
2024-03-12T12:44:43.197Z,100387.73
2024-03-12T12:47:12.699Z,100387.59
2024-03-12T12:49:52.244Z,100383.63
2024-03-12T12:52:23.333Z,100383.90
2024-03-12T12:54:59.812Z,100384.02
2024-03-12T12:57:34.910Z,100386.77
2024-03-12T13:00:16.742Z,100384.52
2024-03-12T13:02:48.087Z,100385.91
2024-03-12T13:05:23.612Z,100388.83
2024-03-12T13:07:54.591Z,100386.03
2024-03-12T13:10:23.961Z,100386.90
2024-03-12T13:12:55.237Z,100389.13
2024-03-12T13:15:27.373Z,100389.84
2024-03-12T13:17:58.440Z,100390.81
2024-03-12T13:20:29.275Z,100398.52
2024-03-12T13:22:58.807Z,100396.95
2024-03-12T13:25:29.900Z,100397.09
2024-03-12T13:28:01.230Z,100395.98
2024-03-12T13:30:32.731Z,100392.77
2024-03-12T13:33:04.417Z,100393.36
2024-03-12T13:35:35.402Z,100396.23
2024-03-12T13:38:06.363Z,100396.70
2024-03-12T13:40:37.285Z,100397.27
2024-03-12T13:43:08.295Z,100399.59
2024-03-12T13:45:37.658Z,100397.39
2024-03-12T13:48:09.487Z,100399.67
2024-03-12T13:50:40.578Z,100402.66
2024-03-12T13:53:11.974Z,100401.63
2024-03-12T13:55:41.829Z,100403.77
2024-03-12T13:58:12.794Z,100401.61
2024-03-12T14:00:44.012Z,100408.90
2024-03-12T14:03:15.116Z,100406.33
2024-03-12T14:05:47.861Z,100401.13
2024-03-12T14:08:20.815Z,100403.98
2024-03-12T14:10:53.102Z,100400.56
2024-03-12T14:13:24.224Z,100403.17
2024-03-12T14:15:55.367Z,100402.80
2024-03-12T14:18:26.417Z,100408.71
2024-03-12T14:20:57.944Z,100409.41
2024-03-12T14:23:28.882Z,100410.33
2024-03-12T14:26:00.071Z,100412.79
2024-03-12T14:28:31.114Z,100412.47
2024-03-12T14:31:02.250Z,100415.19
2024-03-12T14:33:33.308Z,100417.58
2024-03-12T14:36:05.329Z,100418.77
2024-03-12T14:38:36.306Z,100421.16
2024-03-12T14:41:05.689Z,100421.83
2024-03-12T14:43:36.791Z,100424.22
2024-03-12T14:46:07.887Z,100424.46
2024-03-12T14:48:38.998Z,100425.34
2024-03-12T14:51:10.400Z,100424.57
2024-03-12T14:53:41.365Z,100425.52
2024-03-12T14:56:10.649Z,100425.73
2024-03-12T14:58:41.590Z,100430.30
2024-03-12T15:01:11.363Z,100430.00
2024-03-12T15:03:42.578Z,100430.36
2024-03-12T15:06:11.971Z,100431.55
2024-03-12T15:08:42.804Z,100430.90
2024-03-12T15:11:14.047Z,100433.98
2024-03-12T15:13:44.981Z,100431.35
2024-03-12T15:16:14.198Z,100431.27
2024-03-12T15:18:45.033Z,100434.73
2024-03-12T15:21:16.069Z,100434.48
2024-03-12T15:23:47.123Z,100438.38
2024-03-12T15:26:18.056Z,100437.76
2024-03-12T15:28:48.097Z,100439.08
2024-03-12T15:31:19.228Z,100442.19
2024-03-12T15:33:50.464Z,100440.72
2024-03-12T15:36:21.577Z,100440.70
2024-03-12T15:38:52.672Z,100442.43
2024-03-12T15:41:23.648Z,100444.92
2024-03-12T15:43:52.894Z,100442.44
2024-03-12T15:46:23.838Z,100445.04
2024-03-12T15:48:56.056Z,100444.67
2024-03-12T15:51:26.988Z,100449.68
2024-03-12T15:53:57.912Z,100450.67
2024-03-12T15:56:27.226Z,100453.60
2024-03-12T15:58:59.075Z,100456.17
2024-03-12T16:01:41.208Z,100458.34
2024-03-12T16:04:17.817Z,100454.85
2024-03-12T16:06:48.879Z,100455.84
2024-03-12T16:09:20.152Z,100459.56
2024-03-12T16:11:51.093Z,100460.51
2024-03-12T16:14:27.151Z,100463.92
2024-03-12T16:17:01.507Z,100466.43
2024-03-12T16:19:32.346Z,100466.45
2024-03-12T16:22:46.923Z,100468.83
2024-03-12T16:25:20.273Z,100466.77
2024-03-12T16:27:51.207Z,100468.15
2024-03-12T16:30:22.147Z,100471.30
2024-03-12T16:32:53.986Z,100476.48
2024-03-12T16:35:25.960Z,100470.61
2024-03-12T16:37:57.026Z,100472.06
2024-03-12T16:40:28.157Z,100470.45
2024-03-12T16:42:59.835Z,100470.46
2024-03-12T16:45:30.712Z,100472.66
2024-03-12T16:47:59.986Z,100472.52
2024-03-12T16:50:30.812Z,100478.04
2024-03-12T16:53:01.746Z,100480.61
2024-03-12T16:55:37.890Z,100482.86
2024-03-12T16:58:13.246Z,100485.98
2024-03-12T17:00:47.181Z,100485.42
2024-03-12T17:03:20.545Z,100489.69
2024-03-12T17:05:53.658Z,100490.66
2024-03-12T17:08:25.245Z,100493.70
2024-03-12T17:10:57.909Z,100496.19
2024-03-12T17:13:30.467Z,100500.48
2024-03-12T17:16:06.210Z,100501.83
2024-03-12T17:18:39.719Z,100501.54
2024-03-12T17:21:15.092Z,100503.67
2024-03-12T17:23:48.481Z,100504.87
2024-03-12T17:26:20.710Z,100503.77
2024-03-12T17:28:55.855Z,100506.76
2024-03-12T17:32:01.956Z,100507.06
2024-03-12T17:34:25.158Z,100514.89
2024-03-12T17:36:59.272Z,100515.95
2024-03-12T17:39:32.063Z,100517.91
2024-03-12T17:42:08.391Z,100518.12
2024-03-12T17:44:42.326Z,100519.96
2024-03-12T17:47:15.081Z,100519.31
2024-03-12T17:49:47.545Z,100521.30
2024-03-12T17:52:19.456Z,100522.09
2024-03-12T17:54:53.331Z,100523.66
2024-03-12T17:57:28.302Z,100525.94
2024-03-12T18:00:00.343Z,100527.66
2024-03-12T18:02:35.559Z,100527.79
2024-03-12T18:05:08.265Z,100525.40
2024-03-12T18:07:41.440Z,100528.33
2024-03-12T18:10:15.052Z,100530.48
2024-03-12T18:12:49.098Z,100530.35
2024-03-12T18:15:20.523Z,100533.71
2024-03-12T18:17:55.809Z,100538.61
2024-03-12T18:20:29.821Z,100535.36
2024-03-12T18:23:00.989Z,100534.52
2024-03-12T18:25:33.941Z,100536.73
2024-03-12T18:28:05.268Z,100543.52
2024-03-12T18:30:36.285Z,100542.70
2024-03-12T18:33:07.354Z,100541.86
2024-03-12T18:35:36.839Z,100543.89
2024-03-12T18:38:13.766Z,100549.08
2024-03-12T18:40:44.985Z,100554.96
2024-03-12T18:43:15.880Z,100556.67
2024-03-12T18:45:45.555Z,100555.73
2024-03-12T18:48:17.724Z,100557.88
2024-03-12T18:50:49.452Z,100562.61
2024-03-12T18:53:24.256Z,100565.94
2024-03-12T18:56:05.002Z,100570.14
2024-03-12T18:58:38.723Z,100567.90
2024-03-12T19:01:11.806Z,100571.08
2024-03-12T19:03:49.108Z,100570.52
2024-03-12T19:06:31.593Z,100575.44
2024-03-12T19:09:04.905Z,100575.30
2024-03-12T19:11:38.630Z,100576.51
2024-03-12T19:14:12.278Z,100576.52
2024-03-12T19:16:47.279Z,100578.56
2024-03-12T19:19:27.687Z,100579.18
2024-03-12T19:22:01.063Z,100583.27
2024-03-12T19:24:32.391Z,100584.04
2024-03-12T19:27:07.300Z,100585.39
2024-03-12T19:29:38.458Z,100590.07
2024-03-12T19:32:22.651Z,100588.80
2024-03-12T19:34:54.779Z,100592.81
2024-03-12T19:37:27.704Z,100593.61
2024-03-12T19:40:01.555Z,100590.27
2024-03-12T19:42:37.063Z,100593.89
2024-03-12T19:45:11.247Z,100594.52
2024-03-12T19:47:46.480Z,100593.37
2024-03-12T19:50:22.022Z,100591.05
2024-03-12T19:52:54.167Z,100588.15
2024-03-12T19:55:26.882Z,100590.66
2024-03-12T19:57:59.262Z,100588.38
2024-03-12T20:00:31.922Z,100589.52
2024-03-12T20:03:04.930Z,100591.52
2024-03-12T20:05:36.177Z,100590.81
2024-03-12T20:08:09.259Z,100590.30
2024-03-12T20:10:40.334Z,100590.63
2024-03-12T20:13:11.617Z,100594.11
2024-03-12T20:15:44.841Z,100596.31
2024-03-12T20:18:16.728Z,100598.76
2024-03-12T20:20:47.835Z,100601.17
2024-03-12T20:23:17.243Z,100601.58
2024-03-12T20:26:11.800Z,100600.73
2024-03-12T20:28:40.357Z,100603.11
2024-03-12T20:31:09.546Z,100606.40
2024-03-12T20:33:40.948Z,100605.50
2024-03-12T20:36:10.216Z,100609.03
2024-03-12T20:38:41.134Z,100610.79
2024-03-12T20:41:10.500Z,100609.95
2024-03-12T20:43:41.441Z,100608.70
2024-03-12T20:46:12.545Z,100611.29
2024-03-12T20:48:43.425Z,100613.00
2024-03-12T20:51:14.447Z,100617.40
2024-03-12T20:53:43.704Z,100620.43
2024-03-12T20:56:14.658Z,100614.89
2024-03-12T20:58:43.982Z,100618.84
2024-03-12T21:01:15.099Z,100612.93
2024-03-12T21:03:44.381Z,100617.41
2024-03-12T21:06:15.512Z,100618.15
2024-03-12T21:08:45.373Z,100618.73
2024-03-12T21:11:16.407Z,100614.54
2024-03-12T21:13:45.769Z,100611.02
2024-03-12T21:16:16.814Z,100610.59
2024-03-12T21:18:46.313Z,100615.56
2024-03-12T21:21:17.146Z,100614.19
2024-03-12T21:23:48.160Z,100621.32
2024-03-12T21:26:20.483Z,100626.23
2024-03-12T21:28:52.129Z,100631.65
2024-03-12T21:31:23.165Z,100630.48
2024-03-12T21:33:52.453Z,100632.00
2024-03-12T21:36:23.727Z,100628.37
2024-03-12T21:38:54.790Z,100627.60
2024-03-12T21:41:24.095Z,100627.70
2024-03-12T21:43:55.163Z,100629.77
2024-03-12T21:46:24.556Z,100634.20
2024-03-12T21:49:18.129Z,100635.84
2024-03-12T21:51:49.743Z,100638.54
2024-03-12T21:54:23.704Z,100641.84
2024-03-12T21:56:54.966Z,100644.27
2024-03-12T21:59:26.834Z,100643.68
2024-03-12T22:01:57.865Z,100645.05
2024-03-12T22:04:27.339Z,100647.05
2024-03-12T22:06:59.137Z,100649.46
2024-03-12T22:09:30.525Z,100649.82
2024-03-12T22:12:01.512Z,100652.15
2024-03-12T22:14:32.718Z,100649.35
2024-03-12T22:17:02.125Z,100650.85
2024-03-12T22:19:33.054Z,100647.97
2024-03-12T22:22:04.312Z,100653.67
2024-03-12T22:24:37.151Z,100656.41
2024-03-12T22:27:08.079Z,100660.29
2024-03-12T22:29:37.416Z,100661.27
2024-03-12T22:32:10.557Z,100661.91
2024-03-12T22:34:41.450Z,100656.63
2024-03-12T22:37:12.674Z,100657.30
2024-03-12T22:39:44.543Z,100655.46
2024-03-12T22:42:18.523Z,100659.31
2024-03-12T22:44:53.572Z,100656.73
2024-03-12T22:47:27.390Z,100660.45
2024-03-12T22:50:00.476Z,100659.60
2024-03-12T22:52:33.134Z,100662.17
2024-03-12T22:55:04.913Z,100663.44
2024-03-12T22:57:38.994Z,100664.72
2024-03-12T23:03:02.785Z,100661.34
2024-03-12T23:05:35.346Z,100662.10
2024-03-12T23:08:10.571Z,100656.78
2024-03-12T23:10:42.837Z,100655.89
2024-03-12T23:13:14.453Z,100656.75
2024-03-12T23:15:46.210Z,100658.49
2024-03-12T23:18:17.210Z,100658.02
2024-03-12T23:20:48.136Z,100656.52
2024-03-12T23:23:19.507Z,100653.45
2024-03-12T23:25:50.376Z,100656.52
2024-03-12T23:28:21.754Z,100655.44
2024-03-12T23:30:52.835Z,100654.80
2024-03-12T23:33:23.780Z,100655.06
2024-03-12T23:36:14.676Z,100660.10
2024-03-12T23:38:45.589Z,100660.24
2024-03-12T23:41:16.502Z,100662.16
2024-03-12T23:43:47.458Z,100658.45
2024-03-12T23:46:18.675Z,100661.13
2024-03-12T23:48:49.662Z,100663.70
2024-03-12T23:51:20.677Z,100661.48
2024-03-12T23:53:50.003Z,100662.56
2024-03-12T23:56:20.984Z,100663.40
2024-03-12T23:58:52.613Z,100665.30
